sensor_id;sensor_type;location;lat;lon;timestamp;P1;durP1;ratioP1;P2;durP2;ratioP2
30149;SDS011;16962;48.646;9.026;2023-02-14T00:00:29;65.88;;;32.50;;
30149;SDS011;16962;48.646;9.026;2023-02-14T00:03:18;72.45;;;32.60;;
30149;SDS011;16962;48.646;9.026;2023-02-14T00:06:07;70.22;;;33.65;;
30149;SDS011;16962;48.646;9.026;2023-02-14T00:08:56;72.50;;;32.95;;
30149;SDS011;16962;48.646;9.026;2023-02-14T00:11:44;82.10;;;33.10;;
30149;SDS011;16962;48.646;9.026;2023-02-14T00:14:31;72.13;;;32.35;;
30149;SDS011;16962;48.646;9.026;2023-02-14T00:17:37;75.85;;;33.55;;
30149;SDS011;16962;48.646;9.026;2023-02-14T00:20:26;67.50;;;32.70;;
30149;SDS011;16962;48.646;9.026;2023-02-14T00:23:15;78.47;;;33.33;;
30149;SDS011;16962;48.646;9.026;2023-02-14T00:26:02;81.10;;;36.10;;
30149;SDS011;16962;48.646;9.026;2023-02-14T00:28:50;76.65;;;34.17;;
30149;SDS011;16962;48.646;9.026;2023-02-14T00:31:37;75.57;;;34.92;;
30149;SDS011;16962;48.646;9.026;2023-02-14T00:34:28;78.43;;;35.80;;
30149;SDS011;16962;48.646;9.026;2023-02-14T00:37:15;82.35;;;36.25;;
30149;SDS011;16962;48.646;9.026;2023-02-14T00:40:04;75.82;;;33.78;;
30149;SDS011;16962;48.646;9.026;2023-02-14T00:42:52;83.57;;;33.80;;
30149;SDS011;16962;48.646;9.026;2023-02-14T00:45:39;76.60;;;34.20;;
30149;SDS011;16962;48.646;9.026;2023-02-14T00:48:29;77.22;;;34.63;;
30149;SDS011;16962;48.646;9.026;2023-02-14T00:51:16;77.10;;;35.00;;
30149;SDS011;16962;48.646;9.026;2023-02-14T00:54:04;80.28;;;35.05;;
30149;SDS011;16962;48.646;9.026;2023-02-14T00:56:51;78.55;;;34.65;;
30149;SDS011;16962;48.646;9.026;2023-02-14T00:59:39;77.95;;;34.17;;
30149;SDS011;16962;48.646;9.026;2023-02-14T01:02:26;82.72;;;35.17;;
30149;SDS011;16962;48.646;9.026;2023-02-14T01:05:13;76.88;;;35.47;;
30149;SDS011;16962;48.646;9.026;2023-02-14T01:08:01;86.15;;;34.97;;
30149;SDS011;16962;48.646;9.026;2023-02-14T01:10:48;81.32;;;35.33;;
30149;SDS011;16962;48.646;9.026;2023-02-14T01:13:37;82.05;;;37.10;;
30149;SDS011;16962;48.646;9.026;2023-02-14T01:16:27;84.65;;;35.42;;
30149;SDS011;16962;48.646;9.026;2023-02-14T01:19:20;88.53;;;37.80;;
30149;SDS011;16962;48.646;9.026;2023-02-14T01:22:15;77.82;;;34.75;;
30149;SDS011;16962;48.646;9.026;2023-02-14T01:25:02;83.07;;;35.50;;
30149;SDS011;16962;48.646;9.026;2023-02-14T01:27:50;78.57;;;35.58;;
30149;SDS011;16962;48.646;9.026;2023-02-14T01:30:39;74.95;;;34.88;;
30149;SDS011;16962;48.646;9.026;2023-02-14T01:33:26;78.30;;;34.15;;
30149;SDS011;16962;48.646;9.026;2023-02-14T01:36:24;79.82;;;35.83;;
30149;SDS011;16962;48.646;9.026;2023-02-14T01:39:14;80.50;;;34.03;;
30149;SDS011;16962;48.646;9.026;2023-02-14T01:42:01;80.63;;;35.35;;
30149;SDS011;16962;48.646;9.026;2023-02-14T01:47:45;79.18;;;34.88;;
30149;SDS011;16962;48.646;9.026;2023-02-14T01:50:37;80.88;;;35.58;;
30149;SDS011;16962;48.646;9.026;2023-02-14T01:53:30;81.20;;;32.45;;
30149;SDS011;16962;48.646;9.026;2023-02-14T01:56:23;80.97;;;33.97;;
30149;SDS011;16962;48.646;9.026;2023-02-14T01:59:15;80.78;;;34.10;;
30149;SDS011;16962;48.646;9.026;2023-02-14T02:02:06;78.32;;;32.90;;
30149;SDS011;16962;48.646;9.026;2023-02-14T02:04:56;73.32;;;33.38;;
30149;SDS011;16962;48.646;9.026;2023-02-14T02:07:44;75.45;;;34.70;;
30149;SDS011;16962;48.646;9.026;2023-02-14T02:10:39;75.70;;;33.70;;
30149;SDS011;16962;48.646;9.026;2023-02-14T02:13:26;76.05;;;33.67;;
30149;SDS011;16962;48.646;9.026;2023-02-14T02:38:35;72.78;;;31.13;;
30149;SDS011;16962;48.646;9.026;2023-02-14T02:50:48;68.43;;;32.72;;
30149;SDS011;16962;48.646;9.026;2023-02-14T02:54:02;74.43;;;32.20;;
30149;SDS011;16962;48.646;9.026;2023-02-14T02:56:58;74.32;;;31.90;;
30149;SDS011;16962;48.646;9.026;2023-02-14T02:59:48;66.97;;;31.45;;
30149;SDS011;16962;48.646;9.026;2023-02-14T03:02:43;65.88;;;30.40;;
30149;SDS011;16962;48.646;9.026;2023-02-14T03:05:53;73.20;;;30.90;;
30149;SDS011;16962;48.646;9.026;2023-02-14T03:08:44;65.60;;;29.52;;
30149;SDS011;16962;48.646;9.026;2023-02-14T03:11:31;73.40;;;32.95;;
30149;SDS011;16962;48.646;9.026;2023-02-14T03:14:24;73.13;;;31.23;;
30149;SDS011;16962;48.646;9.026;2023-02-14T03:24:10;67.25;;;31.58;;
30149;SDS011;16962;48.646;9.026;2023-02-14T03:27:12;73.22;;;31.40;;
30149;SDS011;16962;48.646;9.026;2023-02-14T03:33:06;72.88;;;33.20;;
30149;SDS011;16962;48.646;9.026;2023-02-14T03:39:06;65.60;;;32.60;;
30149;SDS011;16962;48.646;9.026;2023-02-14T03:42:17;73.90;;;32.50;;
30149;SDS011;16962;48.646;9.026;2023-02-14T03:45:12;73.97;;;32.85;;
30149;SDS011;16962;48.646;9.026;2023-02-14T03:48:05;83.57;;;33.75;;
30149;SDS011;16962;48.646;9.026;2023-02-14T03:50:56;68.93;;;32.08;;
30149;SDS011;16962;48.646;9.026;2023-02-14T03:53:48;73.65;;;33.30;;
30149;SDS011;16962;48.646;9.026;2023-02-14T03:59:33;66.10;;;30.88;;
30149;SDS011;16962;48.646;9.026;2023-02-14T04:05:24;70.47;;;32.53;;
30149;SDS011;16962;48.646;9.026;2023-02-14T04:08:22;68.57;;;30.58;;
30149;SDS011;16962;48.646;9.026;2023-02-14T04:11:10;69.90;;;30.33;;
30149;SDS011;16962;48.646;9.026;2023-02-14T04:13:58;72.10;;;32.28;;
30149;SDS011;16962;48.646;9.026;2023-02-14T04:16:45;66.47;;;30.00;;
30149;SDS011;16962;48.646;9.026;2023-02-14T04:19:51;70.07;;;30.55;;
30149;SDS011;16962;48.646;9.026;2023-02-14T04:22:38;64.88;;;30.60;;
30149;SDS011;16962;48.646;9.026;2023-02-14T04:25:25;64.18;;;30.50;;
30149;SDS011;16962;48.646;9.026;2023-02-14T04:28:15;64.53;;;28.85;;
30149;SDS011;16962;48.646;9.026;2023-02-14T04:31:03;67.75;;;30.38;;
30149;SDS011;16962;48.646;9.026;2023-02-14T04:33:54;68.20;;;31.67;;
30149;SDS011;16962;48.646;9.026;2023-02-14T04:36:42;64.88;;;29.60;;
30149;SDS011;16962;48.646;9.026;2023-02-14T04:39:29;76.05;;;31.80;;
30149;SDS011;16962;48.646;9.026;2023-02-14T04:42:16;77.10;;;32.97;;
30149;SDS011;16962;48.646;9.026;2023-02-14T04:45:04;68.35;;;31.83;;
30149;SDS011;16962;48.646;9.026;2023-02-14T04:47:51;71.32;;;31.90;;
30149;SDS011;16962;48.646;9.026;2023-02-14T04:50:38;66.20;;;30.15;;
30149;SDS011;16962;48.646;9.026;2023-02-14T04:53:26;66.93;;;29.58;;
30149;SDS011;16962;48.646;9.026;2023-02-14T04:56:15;67.03;;;29.73;;
30149;SDS011;16962;48.646;9.026;2023-02-14T04:59:03;71.40;;;32.53;;
30149;SDS011;16962;48.646;9.026;2023-02-14T05:01:50;65.63;;;29.77;;
30149;SDS011;16962;48.646;9.026;2023-02-14T05:04:40;65.82;;;29.55;;
30149;SDS011;16962;48.646;9.026;2023-02-14T05:07:27;65.60;;;30.27;;
30149;SDS011;16962;48.646;9.026;2023-02-14T05:10:14;62.10;;;28.30;;
30149;SDS011;16962;48.646;9.026;2023-02-14T05:13:02;77.45;;;31.17;;
30149;SDS011;16962;48.646;9.026;2023-02-14T05:15:50;61.00;;;28.33;;
30149;SDS011;16962;48.646;9.026;2023-02-14T05:18:39;60.70;;;28.17;;
30149;SDS011;16962;48.646;9.026;2023-02-14T05:21:27;65.57;;;29.08;;
30149;SDS011;16962;48.646;9.026;2023-02-14T05:24:14;60.83;;;28.63;;
30149;SDS011;16962;48.646;9.026;2023-02-14T05:27:03;69.05;;;32.50;;
30149;SDS011;16962;48.646;9.026;2023-02-14T05:29:53;76.68;;;32.17;;
30149;SDS011;16962;48.646;9.026;2023-02-14T05:32:40;64.05;;;30.90;;
30149;SDS011;16962;48.646;9.026;2023-02-14T05:35:33;59.92;;;30.27;;
30149;SDS011;16962;48.646;9.026;2023-02-14T05:38:24;73.13;;;31.30;;
30149;SDS011;16962;48.646;9.026;2023-02-14T05:41:16;82.72;;;34.13;;
30149;SDS011;16962;48.646;9.026;2023-02-14T05:44:03;71.32;;;31.38;;
30149;SDS011;16962;48.646;9.026;2023-02-14T05:46:50;75.45;;;32.97;;
30149;SDS011;16962;48.646;9.026;2023-02-14T05:49:37;74.97;;;35.17;;
30149;SDS011;16962;48.646;9.026;2023-02-14T05:52:31;71.53;;;32.50;;
30149;SDS011;16962;48.646;9.026;2023-02-14T05:55:18;73.60;;;32.45;;
30149;SDS011;16962;48.646;9.026;2023-02-14T05:58:19;71.03;;;31.95;;
30149;SDS011;16962;48.646;9.026;2023-02-14T08:29:24;89.53;;;43.80;;
30149;SDS011;16962;48.646;9.026;2023-02-14T10:56:15;19.88;;;14.75;;
30149;SDS011;16962;48.646;9.026;2023-02-14T11:02:56;19.85;;;14.35;;
30149;SDS011;16962;48.646;9.026;2023-02-14T11:05:55;19.20;;;14.20;;
30149;SDS011;16962;48.646;9.026;2023-02-14T11:08:42;18.33;;;13.63;;
30149;SDS011;16962;48.646;9.026;2023-02-14T11:17:30;19.95;;;14.70;;
30149;SDS011;16962;48.646;9.026;2023-02-14T11:26:07;18.50;;;12.65;;
30149;SDS011;16962;48.646;9.026;2023-02-14T11:29:12;20.35;;;13.75;;
30149;SDS011;16962;48.646;9.026;2023-02-14T11:32:26;18.02;;;13.35;;
30149;SDS011;16962;48.646;9.026;2023-02-14T11:35:20;16.50;;;12.40;;
30149;SDS011;16962;48.646;9.026;2023-02-14T11:38:34;17.75;;;13.27;;
30149;SDS011;16962;48.646;9.026;2023-02-14T11:41:25;19.02;;;13.00;;
30149;SDS011;16962;48.646;9.026;2023-02-14T11:44:16;18.70;;;13.00;;
30149;SDS011;16962;48.646;9.026;2023-02-14T11:47:28;16.25;;;11.50;;
30149;SDS011;16962;48.646;9.026;2023-02-14T11:50:21;15.95;;;12.75;;
30149;SDS011;16962;48.646;9.026;2023-02-14T11:53:19;15.80;;;10.77;;
30149;SDS011;16962;48.646;9.026;2023-02-14T11:56:13;16.17;;;11.63;;
30149;SDS011;16962;48.646;9.026;2023-02-14T11:59:03;12.52;;;10.50;;
30149;SDS011;16962;48.646;9.026;2023-02-14T15:08:30;23.08;;;12.00;;
30149;SDS011;16962;48.646;9.026;2023-02-14T15:15:47;20.70;;;12.40;;
30149;SDS011;16962;48.646;9.026;2023-02-14T15:19:33;20.73;;;13.43;;
30149;SDS011;16962;48.646;9.026;2023-02-14T15:22:53;23.08;;;12.82;;
30149;SDS011;16962;48.646;9.026;2023-02-14T15:26:20;17.88;;;12.35;;
30149;SDS011;16962;48.646;9.026;2023-02-14T15:54:41;23.55;;;14.80;;
30149;SDS011;16962;48.646;9.026;2023-02-14T15:58:20;31.60;;;14.02;;
30149;SDS011;16962;48.646;9.026;2023-02-14T16:05:45;25.08;;;15.00;;
30149;SDS011;16962;48.646;9.026;2023-02-14T16:19:52;31.58;;;18.27;;
30149;SDS011;16962;48.646;9.026;2023-02-14T16:22:39;26.75;;;17.05;;
30149;SDS011;16962;48.646;9.026;2023-02-14T16:25:27;29.30;;;18.77;;
30149;SDS011;16962;48.646;9.026;2023-02-14T16:28:14;29.95;;;19.02;;
30149;SDS011;16962;48.646;9.026;2023-02-14T16:31:03;32.72;;;18.83;;
30149;SDS011;16962;48.646;9.026;2023-02-14T16:33:59;32.03;;;18.15;;
30149;SDS011;16962;48.646;9.026;2023-02-14T16:36:49;30.92;;;18.63;;
30149;SDS011;16962;48.646;9.026;2023-02-14T16:39:39;36.53;;;21.73;;
30149;SDS011;16962;48.646;9.026;2023-02-14T16:42:26;36.58;;;21.80;;
30149;SDS011;16962;48.646;9.026;2023-02-14T16:45:19;41.70;;;20.67;;
30149;SDS011;16962;48.646;9.026;2023-02-14T16:48:09;59.80;;;31.35;;
30149;SDS011;16962;48.646;9.026;2023-02-14T16:50:59;50.53;;;28.70;;
30149;SDS011;16962;48.646;9.026;2023-02-14T16:53:50;50.50;;;25.02;;
30149;SDS011;16962;48.646;9.026;2023-02-14T16:56:51;38.78;;;22.83;;
30149;SDS011;16962;48.646;9.026;2023-02-14T16:59:40;42.20;;;24.25;;
30149;SDS011;16962;48.646;9.026;2023-02-14T17:02:27;43.88;;;23.70;;
30149;SDS011;16962;48.646;9.026;2023-02-14T17:05:18;42.90;;;24.08;;
30149;SDS011;16962;48.646;9.026;2023-02-14T17:08:09;42.25;;;23.40;;
30149;SDS011;16962;48.646;9.026;2023-02-14T17:11:01;41.47;;;22.38;;
30149;SDS011;16962;48.646;9.026;2023-02-14T17:13:51;43.20;;;24.17;;
30149;SDS011;16962;48.646;9.026;2023-02-14T17:16:46;43.78;;;24.42;;
30149;SDS011;16962;48.646;9.026;2023-02-14T17:19:36;41.75;;;22.30;;
30149;SDS011;16962;48.646;9.026;2023-02-14T17:22:26;43.42;;;22.30;;
30149;SDS011;16962;48.646;9.026;2023-02-14T17:25:16;49.42;;;23.92;;
30149;SDS011;16962;48.646;9.026;2023-02-14T17:28:17;40.28;;;22.23;;
30149;SDS011;16962;48.646;9.026;2023-02-14T17:31:05;38.60;;;21.65;;
30149;SDS011;16962;48.646;9.026;2023-02-14T17:33:55;43.88;;;22.52;;
30149;SDS011;16962;48.646;9.026;2023-02-14T17:36:42;36.78;;;21.30;;
30149;SDS011;16962;48.646;9.026;2023-02-14T17:39:30;46.13;;;23.52;;
30149;SDS011;16962;48.646;9.026;2023-02-14T17:42:20;40.20;;;22.35;;
30149;SDS011;16962;48.646;9.026;2023-02-14T17:45:07;39.45;;;22.85;;
30149;SDS011;16962;48.646;9.026;2023-02-14T17:47:57;48.05;;;23.30;;
30149;SDS011;16962;48.646;9.026;2023-02-14T17:50:48;47.08;;;24.92;;
30149;SDS011;16962;48.646;9.026;2023-02-14T17:53:37;42.00;;;23.02;;
30149;SDS011;16962;48.646;9.026;2023-02-14T17:56:27;51.40;;;25.10;;
30149;SDS011;16962;48.646;9.026;2023-02-14T17:59:14;47.55;;;24.85;;
30149;SDS011;16962;48.646;9.026;2023-02-14T18:02:05;46.15;;;26.42;;
30149;SDS011;16962;48.646;9.026;2023-02-14T18:04:53;47.28;;;25.42;;
30149;SDS011;16962;48.646;9.026;2023-02-14T18:07:42;43.15;;;23.60;;
30149;SDS011;16962;48.646;9.026;2023-02-14T18:10:29;42.38;;;23.58;;
30149;SDS011;16962;48.646;9.026;2023-02-14T18:13:16;47.10;;;24.95;;
30149;SDS011;16962;48.646;9.026;2023-02-14T18:16:05;50.88;;;25.90;;
30149;SDS011;16962;48.646;9.026;2023-02-14T18:18:55;55.72;;;30.42;;
30149;SDS011;16962;48.646;9.026;2023-02-14T18:21:50;55.50;;;30.40;;
30149;SDS011;16962;48.646;9.026;2023-02-14T18:24:43;65.65;;;33.17;;
30149;SDS011;16962;48.646;9.026;2023-02-14T18:27:34;66.70;;;33.65;;
30149;SDS011;16962;48.646;9.026;2023-02-14T18:30:45;64.43;;;34.50;;
30149;SDS011;16962;48.646;9.026;2023-02-14T18:33:34;94.65;;;45.45;;
30149;SDS011;16962;48.646;9.026;2023-02-14T18:36:22;82.97;;;42.97;;
30149;SDS011;16962;48.646;9.026;2023-02-14T18:39:12;78.25;;;42.50;;
30149;SDS011;16962;48.646;9.026;2023-02-14T18:42:04;68.38;;;37.65;;
30149;SDS011;16962;48.646;9.026;2023-02-14T18:44:52;68.38;;;34.90;;
30149;SDS011;16962;48.646;9.026;2023-02-14T18:47:40;67.47;;;35.85;;
30149;SDS011;16962;48.646;9.026;2023-02-14T18:50:30;69.38;;;33.92;;
30149;SDS011;16962;48.646;9.026;2023-02-14T18:53:19;81.28;;;38.28;;
30149;SDS011;16962;48.646;9.026;2023-02-14T18:56:07;100.90;;;47.53;;
30149;SDS011;16962;48.646;9.026;2023-02-14T18:58:59;89.70;;;46.37;;
30149;SDS011;16962;48.646;9.026;2023-02-14T19:01:50;77.97;;;40.70;;
30149;SDS011;16962;48.646;9.026;2023-02-14T19:04:37;83.07;;;42.38;;
30149;SDS011;16962;48.646;9.026;2023-02-14T19:07:27;79.32;;;40.35;;
30149;SDS011;16962;48.646;9.026;2023-02-14T19:10:17;92.30;;;40.83;;
30149;SDS011;16962;48.646;9.026;2023-02-14T19:13:28;76.72;;;41.70;;
30149;SDS011;16962;48.646;9.026;2023-02-14T19:16:20;77.67;;;43.70;;
30149;SDS011;16962;48.646;9.026;2023-02-14T19:19:20;87.80;;;45.13;;
30149;SDS011;16962;48.646;9.026;2023-02-14T19:22:11;87.63;;;44.38;;
30149;SDS011;16962;48.646;9.026;2023-02-14T19:24:59;86.55;;;43.50;;
30149;SDS011;16962;48.646;9.026;2023-02-14T19:27:48;87.00;;;45.95;;
30149;SDS011;16962;48.646;9.026;2023-02-14T19:30:36;93.18;;;44.33;;
30149;SDS011;16962;48.646;9.026;2023-02-14T19:33:24;86.20;;;46.15;;
30149;SDS011;16962;48.646;9.026;2023-02-14T19:36:13;91.13;;;48.45;;
30149;SDS011;16962;48.646;9.026;2023-02-14T19:39:02;98.13;;;47.78;;
30149;SDS011;16962;48.646;9.026;2023-02-14T19:41:50;84.15;;;44.10;;
30149;SDS011;16962;48.646;9.026;2023-02-14T19:44:40;88.32;;;48.30;;
30149;SDS011;16962;48.646;9.026;2023-02-14T19:47:31;97.32;;;47.50;;
30149;SDS011;16962;48.646;9.026;2023-02-14T19:50:32;97.30;;;47.58;;
30149;SDS011;16962;48.646;9.026;2023-02-14T19:53:22;92.05;;;45.20;;
30149;SDS011;16962;48.646;9.026;2023-02-14T19:56:11;97.07;;;48.13;;
30149;SDS011;16962;48.646;9.026;2023-02-14T20:01:57;92.18;;;45.30;;
30149;SDS011;16962;48.646;9.026;2023-02-14T20:04:46;97.60;;;47.85;;
30149;SDS011;16962;48.646;9.026;2023-02-14T20:07:34;96.68;;;48.42;;
30149;SDS011;16962;48.646;9.026;2023-02-14T20:10:27;93.38;;;48.72;;
30149;SDS011;16962;48.646;9.026;2023-02-14T20:13:15;102.65;;;49.25;;
30149;SDS011;16962;48.646;9.026;2023-02-14T20:16:03;91.05;;;47.05;;
30149;SDS011;16962;48.646;9.026;2023-02-14T20:18:51;98.15;;;46.45;;
30149;SDS011;16962;48.646;9.026;2023-02-14T20:21:39;96.68;;;47.42;;
30149;SDS011;16962;48.646;9.026;2023-02-14T20:24:30;103.05;;;51.58;;
30149;SDS011;16962;48.646;9.026;2023-02-14T20:27:18;110.32;;;54.67;;
30149;SDS011;16962;48.646;9.026;2023-02-14T20:30:08;121.95;;;57.97;;
30149;SDS011;16962;48.646;9.026;2023-02-14T20:32:57;115.78;;;55.17;;
30149;SDS011;16962;48.646;9.026;2023-02-14T20:35:44;112.95;;;53.10;;
30149;SDS011;16962;48.646;9.026;2023-02-14T20:38:34;113.90;;;55.30;;
30149;SDS011;16962;48.646;9.026;2023-02-14T20:41:22;119.93;;;56.08;;
30149;SDS011;16962;48.646;9.026;2023-02-14T20:44:11;116.07;;;54.20;;
30149;SDS011;16962;48.646;9.026;2023-02-14T20:47:05;122.75;;;57.20;;
30149;SDS011;16962;48.646;9.026;2023-02-14T20:49:53;111.60;;;53.30;;
30149;SDS011;16962;48.646;9.026;2023-02-14T20:52:40;98.78;;;50.60;;
30149;SDS011;16962;48.646;9.026;2023-02-14T20:55:28;99.30;;;49.90;;
30149;SDS011;16962;48.646;9.026;2023-02-14T20:58:17;102.88;;;49.38;;
30149;SDS011;16962;48.646;9.026;2023-02-14T21:04:01;94.10;;;48.70;;
30149;SDS011;16962;48.646;9.026;2023-02-14T21:06:49;95.50;;;48.42;;
30149;SDS011;16962;48.646;9.026;2023-02-14T21:09:39;92.18;;;48.08;;
30149;SDS011;16962;48.646;9.026;2023-02-14T21:12:26;92.85;;;47.85;;
30149;SDS011;16962;48.646;9.026;2023-02-14T21:15:13;94.20;;;46.35;;
30149;SDS011;16962;48.646;9.026;2023-02-14T21:18:01;101.10;;;47.60;;
30149;SDS011;16962;48.646;9.026;2023-02-14T21:21:03;97.45;;;46.80;;
30149;SDS011;16962;48.646;9.026;2023-02-14T21:23:51;99.85;;;50.55;;
30149;SDS011;16962;48.646;9.026;2023-02-14T21:26:40;102.25;;;49.70;;
30149;SDS011;16962;48.646;9.026;2023-02-14T21:29:28;96.75;;;46.88;;
30149;SDS011;16962;48.646;9.026;2023-02-14T21:32:15;102.32;;;50.13;;
30149;SDS011;16962;48.646;9.026;2023-02-14T21:35:06;99.13;;;48.45;;
30149;SDS011;16962;48.646;9.026;2023-02-14T21:37:56;102.20;;;46.97;;
30149;SDS011;16962;48.646;9.026;2023-02-14T21:40:43;95.82;;;46.50;;
30149;SDS011;16962;48.646;9.026;2023-02-14T21:43:35;101.43;;;48.05;;
30149;SDS011;16962;48.646;9.026;2023-02-14T21:46:34;101.10;;;49.90;;
30149;SDS011;16962;48.646;9.026;2023-02-14T21:49:24;102.35;;;47.50;;
30149;SDS011;16962;48.646;9.026;2023-02-14T21:52:30;103.20;;;45.42;;
30149;SDS011;16962;48.646;9.026;2023-02-14T21:55:17;95.80;;;46.20;;
30149;SDS011;16962;48.646;9.026;2023-02-14T21:58:04;92.90;;;45.35;;
30149;SDS011;16962;48.646;9.026;2023-02-14T22:00:51;97.78;;;45.53;;
30149;SDS011;16962;48.646;9.026;2023-02-14T22:03:41;93.72;;;45.03;;
30149;SDS011;16962;48.646;9.026;2023-02-14T22:06:28;98.43;;;49.38;;
30149;SDS011;16962;48.646;9.026;2023-02-14T22:09:16;111.45;;;48.95;;
30149;SDS011;16962;48.646;9.026;2023-02-14T22:12:04;110.30;;;52.45;;
30149;SDS011;16962;48.646;9.026;2023-02-14T22:14:52;119.28;;;55.97;;
30149;SDS011;16962;48.646;9.026;2023-02-14T22:17:39;119.68;;;53.05;;
30149;SDS011;16962;48.646;9.026;2023-02-14T22:20:28;100.60;;;47.83;;
30149;SDS011;16962;48.646;9.026;2023-02-14T22:23:16;101.00;;;47.08;;
30149;SDS011;16962;48.646;9.026;2023-02-14T22:26:13;99.72;;;45.22;;
30149;SDS011;16962;48.646;9.026;2023-02-14T22:29:09;106.80;;;47.95;;
30149;SDS011;16962;48.646;9.026;2023-02-14T22:32:02;107.95;;;48.90;;
30149;SDS011;16962;48.646;9.026;2023-02-14T22:34:50;106.13;;;49.35;;
30149;SDS011;16962;48.646;9.026;2023-02-14T22:37:40;112.32;;;50.83;;
30149;SDS011;16962;48.646;9.026;2023-02-14T22:40:27;118.90;;;53.33;;
30149;SDS011;16962;48.646;9.026;2023-02-14T22:43:15;131.60;;;53.55;;
30149;SDS011;16962;48.646;9.026;2023-02-14T22:46:05;125.75;;;55.28;;
30149;SDS011;16962;48.646;9.026;2023-02-14T22:48:55;114.30;;;52.88;;
30149;SDS011;16962;48.646;9.026;2023-02-14T22:51:43;117.70;;;51.47;;
30149;SDS011;16962;48.646;9.026;2023-02-14T22:54:30;111.80;;;51.65;;
30149;SDS011;16962;48.646;9.026;2023-02-14T22:57:17;117.55;;;52.80;;
30149;SDS011;16962;48.646;9.026;2023-02-14T23:00:06;117.90;;;50.83;;
30149;SDS011;16962;48.646;9.026;2023-02-14T23:02:57;106.25;;;48.25;;
30149;SDS011;16962;48.646;9.026;2023-02-14T23:05:44;101.38;;;47.55;;
30149;SDS011;16962;48.646;9.026;2023-02-14T23:08:32;103.45;;;45.83;;
30149;SDS011;16962;48.646;9.026;2023-02-14T23:11:20;104.05;;;45.95;;
30149;SDS011;16962;48.646;9.026;2023-02-14T23:14:09;107.38;;;46.22;;
30149;SDS011;16962;48.646;9.026;2023-02-14T23:17:19;105.85;;;46.05;;
30149;SDS011;16962;48.646;9.026;2023-02-14T23:20:24;105.88;;;46.47;;
30149;SDS011;16962;48.646;9.026;2023-02-14T23:23:34;112.13;;;46.60;;
30149;SDS011;16962;48.646;9.026;2023-02-14T23:26:21;114.65;;;50.55;;
30149;SDS011;16962;48.646;9.026;2023-02-14T23:29:08;107.50;;;47.67;;
30149;SDS011;16962;48.646;9.026;2023-02-14T23:31:55;121.35;;;52.53;;
30149;SDS011;16962;48.646;9.026;2023-02-14T23:34:43;111.72;;;49.53;;
30149;SDS011;16962;48.646;9.026;2023-02-14T23:37:31;110.05;;;48.85;;
30149;SDS011;16962;48.646;9.026;2023-02-14T23:40:19;122.30;;;49.85;;
30149;SDS011;16962;48.646;9.026;2023-02-14T23:43:06;131.70;;;55.63;;
30149;SDS011;16962;48.646;9.026;2023-02-14T23:45:53;122.47;;;52.92;;
30149;SDS011;16962;48.646;9.026;2023-02-14T23:48:41;112.90;;;51.08;;
30149;SDS011;16962;48.646;9.026;2023-02-14T23:51:29;135.65;;;56.13;;
30149;SDS011;16962;48.646;9.026;2023-02-14T23:54:18;116.95;;;51.20;;
30149;SDS011;16962;48.646;9.026;2023-02-14T23:57:11;132.57;;;54.92;;
